メインページ
METAR-TAF:

METAR-TAF

空港 :

アトランタ, ジョージア州, アメリカ合衆国

ハーツフィールド・ジャクソン・アトランタ国際空港

緯度: 33-38-25N, 経度: 084-25-37W, 海抜: 313m

現時点の気象観測

当レポートは41分前の00:52(UTC)に作成
東/北東の風 15kt
気温 14°C
湿度 94%
気圧 1009 hPa
視程: 16.1km
高度600ftの曇り

METAR: KATL 240052Z 07015KT 10SM OVC006 14/13 A2979 RMK AO2 SLP086 CIG 005V007 T01390128

時間: 21:33 (01:33 UTC)

予報

当レポートは2時間11分前の23:22(UTC)に作成
予報は24日の 00時(UTC)から 25日の 06時(UTC)まで有効
北東の風 8kt
視程: 10km
高度600ftの曇り
24日の 0500時(UTC)から
北/北西の風 4kt
視程: 10km
高度1500ftの曇り
24日の 0800時(UTC)から
北/北西の風 4kt
視程: 8.0km
高度700ftの曇り
小霧雨
24日の 1400時(UTC)から
北/北西の風 7kt
視程: 10km
高度1200ftの千切れ雲あり
24日の 1800時(UTC)から
北/北西の風 10kt
視程: 10km
高度2500ftの千切れ雲あり

TAF: KATL 232322Z 2400/2506 05008KT P6SM OVC006 FM240500 33004KT P6SM OVC015 FM240800 33004KT 5SM -DZ OVC007 FM241400 34007KT P6SM BKN012 FM241800 34010KT P6SM BKN025

4,000以上の空港の気象観測と天気予報(METAR報とTAF報)

利用可能な観測所は地図上に黄色い丸と赤い丸で示す。

丸の上にカーソルを重ねると観測所名を参照できる。

次にクリックすると気象観測と天気予報を参照できる。

マップの切り替え:黒色「×」印の緑ボタンをクリックして拡大、「-」印の緑ボタンをクリックして縮小、緑色の三角印をクリックして隣りの地図に切り替え


METAR-TAF: